Main page
METAR-TAF:

METAR-TAF

Airports :

Pointe Vele Airport

Futuna, France

latitude: 14-19S, longitude: 178-07W, elevation: 6 m

METAR: missing

Time: 05:13 (17:13 UTC)

Forecast

The report was made 6 hours and 13 minutes ago, at 11:00 UTC
Forecast valid from 21 at 12 UTC to 22 at 12 UTC
Wind 15 kt from the Southeast
Visibility 10 km or more
Scattered clouds at a height of 2000 ft
Broken clouds at a height of 3000 ft
Temporary
from 21 at 12 UTC to 21 at 20 UTC
Wind 20 kt from the South/Southeast with gusts up to 30 kt
Visibility: 4000 m
Broken clouds at a height of 1200 ft
Few clouds at a height of 1800 ft, Towering cumulus.
rain showers,

TAF: NLWF 211100Z 2112/2212 13015KT 9999 SCT020 BKN030 TEMPO 2112/2120 15020G30KT 4000 SHRA BKN012 FEW018TCU

Weather observations and forecasts of more than 4000 airports (METAR and TAF reports).

The available stations are represented by yellow and red dots on the map.

Hover mouse over dot to see the name of the station.

Then click to see weather observations and forecasts.

To change the map : click on the green buttons with a black cross to zoom in, on the green button with a dash to zoom out, or on the green arrows for adjacent maps.


METAR-TAF: